Details From CYZS - Coral Harbour
To CYPX - Puvirnituq
Flight Number -
Tags Generated
Created
Modified
Stats Distance 302 nm / 560 km
Max Altitude 0 ft / 0 m
Waypoints 3
Social Downloads 1
Likes 0
Share VATSIM

Download

Looking for another format? Having issues loading an existing format? Contact us
Advertisement - Login to hide

Notes

Generated

Route

CYZS YPX CYPX

ID Type Via Altitude Latitude Longitude Leg Dist Tot Dist Heading (true) Name
O CYZS APT - 0 ft / 0 m 64.19953˚ -83.36607˚ - 0 nm - -
YPX NDB - 0 ft / 0 m 60.04389˚ -77.27944˚ 302 nm 302 nm 143° / 148° -
O CYPX APT - 0 ft / 0 m 60.04389˚ -77.28306˚ 0 nm 302 nm 270° / 270° -

Altitude Profile

Advertisement - Login to hide

Weather


0- 5 10 15 20 25 30 35+ Temperature / ° C

Clouds and Precipitation
Forecast for 2017-12-11 12:00 UTC. Updated 37 minutes ago

Ground ~20,000 ft ~40,000 ft Winds

CYZS

Details ICAO CYZS
Name CORAL HARBOUR
Region Canada
Timezone America/Coral_Harbour (UTC-5.0)
Stats Elevation 210 ft / 64 m (AMSL)
Location 64.193333° -83.359446°
Runways 1
Magnetic Variation 18.862° W

METAR

CYZS 110900Z 34010KT 15SM -SN OVC030 M18/M21 A2957 RMK SC8 SLP024

Decode

TAF

TAF CYZS 110638Z 1107/1119 36010KT P6SM BKN090 TEMPO 1107/1119 4SM -SN BKN020 OVC070 RMK NXT FCST BY 111300Z

Decode

Departure Runways

ID Width Length Bearing (true) Bearing (mag) Surface Threshold Offset Overrun Length
16T 100 ft / 30 m 4,987 ft / 1,520 m 155.02° 173.88° Gravel 0 ft / 0 m 0 ft / 0 m
34T 100 ft / 30 m 4,987 ft / 1,520 m 335.03° 353.89° Gravel 0 ft / 0 m 0 ft / 0 m

CYPX

Details ICAO CYPX (YPX)
Name PUVIRNITUQ
Region Canada
Timezone America/Montreal (UTC-5.0)
Stats Elevation 74 ft / 23 m (AMSL)
Location 60.050418° -77.286945°
Runways 1
Magnetic Variation 19.952° W

METAR

CYPX 110900Z AUTO 17006KT 9SM OVC033 M22/M24 A2955 RMK SLP011

Decode

TAF

TAF CYPX 110538Z 1106/1118 11008KT P6SM SCT030 TEMPO 1106/1118 5SM IC BKN020 BECMG 1109/1111 VRB03KT RMK FCST BASED ON AUTO OBS. NXT FCST BY 111200Z

Decode

Destination Runways

ID Width Length Bearing (true) Bearing (mag) Surface Threshold Offset Overrun Length
01 100 ft / 30 m 4,971 ft / 1,515 m 343.44° 3.39° Gravel 0 ft / 0 m 0 ft / 0 m
19 100 ft / 30 m 4,971 ft / 1,515 m 163.44° 183.39° Gravel 0 ft / 0 m 0 ft / 0 m